This is the latest recevied weather packets stored in our database for station/object KC1TEM-13. If no packets are shown the sender has not sent any weather packets the latest 10 day(s).
| Time | Temp. | Humidity | Pressure | Rain* | Wind** | Luminosity | Snow |
|---|---|---|---|---|---|---|---|
| 1778095505 | 18.89° C | 74% | 1006.9 hPa | 1.78 mm | - | 79 W/m² | - |
| 1778095201 | 19.44° C | 71% | 1007 hPa | 0.51 mm | - | 68 W/m² | - |
| 1778094898 | 19.44° C | 69% | 1006.9 hPa | 0.51 mm | - | 79 W/m² | - |
| 1778094595 | 20° C | 66% | 1006.9 hPa | 0.51 mm | - | 63 W/m² | - |
| 1778094292 | 20° C | 66% | 1007.1 hPa | 0.51 mm | - | 65 W/m² | - |
| 1778093988 | 20.56° C | 65% | 1006.9 hPa | 0 mm | - | 43 W/m² | - |
| 1778093686 | 20.56° C | 62% | 1006.8 hPa | 0.51 mm | - | 88 W/m² | - |
| 1778093382 | 20.56° C | 62% | 1006.7 hPa | 0 mm | - | 110 W/m² | - |
| 1778093079 | 20.56° C | 62% | 1006.9 hPa | 0 mm | - | 90 W/m² | - |
| 1778092776 | 20.56° C | 60% | 1006.9 hPa | 0 mm | - | 85 W/m² | - |
| 1778092472 | 20.56° C | 62% | 1006.8 hPa | 0 mm | - | 105 W/m² | - |
| 1778092169 | 20.56° C | 61% | 1006.9 hPa | 0.51 mm | - | 66 W/m² | - |
| 1778091867 | 20.56° C | 61% | 1006.9 hPa | 0.51 mm | - | 56 W/m² | - |
| 1778091564 | 20.56° C | 62% | 1006.9 hPa | 0.51 mm | - | 106 W/m² | - |
| 1778091262 | 21.67° C | 58% | 1006.9 hPa | 0.51 mm | - | 79 W/m² | - |
| 1778090958 | 22.22° C | 52% | 1006.7 hPa | 0 mm | - | 49 W/m² | - |
| 1778090654 | 22.78° C | 51% | 1006.9 hPa | 0 mm | - | 57 W/m² | - |
| 1778090351 | 22.78° C | 51% | 1006.9 hPa | 0 mm | - | 74 W/m² | - |
| 1778090048 | 22.78° C | 51% | 1006.9 hPa | 0 mm | - | 65 W/m² | - |
| 1778089745 | 22.78° C | 51% | 1006.8 hPa | 0 mm | - | 142 W/m² | - |
| 1778089443 | 22.78° C | 50% | 1007 hPa | 0 mm | - | 143 W/m² | - |
| 1778089140 | 22.78° C | 50% | 1006.9 hPa | 0 mm | - | 188 W/m² | - |
| 1778088836 | 23.33° C | 48% | 1007.1 hPa | 0 mm | - | 182 W/m² | - |
| 1778088533 | 23.89° C | 47% | 1006.9 hPa | 0 mm | - | 345 W/m² | - |
| 1778088230 | 23.89° C | 48% | 1006.9 hPa | 0 mm | - | 633 W/m² | - |
* Rain latest hour (hover to see other rain measurements)
** Current wind speed in m/s (hover to see current wind gust speed)